SPHO/AYP METAR and TAF weather

Enter ICAO airport designator
Station Type Date Time Source
SPHO METAR 2019/06/17 14:00 UTC NOAA

SPHO 171400Z 03004KT 010V080 9999 BKN090 14/07 Q1034 RMK PP000


Station Type Date Time Source
SPHO Decoded METAR 2019/06/17 14:00 UTC NOAA

Ayacucho, Peru (SPHO) 13-08S 074-13W 2749M
Jun 17, 2019 - 10:00 AM EDT / 2019.06.17 1400 UTC
Wind: from the NNE (030 degrees) at 5 MPH (4 KT) (direction variable):0
Visibility: greater than 7 mile(s):0
Sky conditions: mostly cloudy
Temperature: 57 F (14 C)
Dew Point: 44 F (7 C)
Relative Humidity: 62%
Pressure (altimeter): 30.53 in. Hg (1034 hPa)
ob: SPHO 171400Z 03004KT 010V080 9999 BKN090 14/07 Q1034 RMK PP000
cycle: 14

Station Type Date Time Source
SPHO TAF 2019/06/17 12:33 UTC NOAA

SPHO 171100Z 1712/1812 00000KT 9999 BKN080 TX23/1719Z TN09/1811Z
TEMPO 1713/1716 FEW040
TEMPO 1722/1802 DZ

Example: see airport list